.
WxDataArchive / Data Records for 2011-07-27
2011-07-26 July 2011 2011-07-28

Data Records for Wednesday, 27 July 2011

Time	Temp	Chill	HIndex	Humid	Dewpt	 Wind 	HiWind	WindDir	Rain 	Barom 
-----	----	-----	------	-----	-----	------	------	-------	-----	----- 
00:00	71.1	71.1	71.1	61	57.0	0	0	---	0.00	29.886 
00:05	70.9	70.9	70.9	61	56.8	0	0	---	0.00	29.886 
00:10	70.8	70.8	70.8	62	57.1	0	0	---	0.00	29.886 
00:15	70.6	70.6	70.6	62	56.9	0	0	---	0.00	29.884 
00:20	70.3	70.3	70.3	62	56.7	0	0	---	0.00	29.884 
00:25	70.1	70.1	70.1	62	56.5	0	0	---	0.00	29.884 
00:30	69.9	69.9	69.9	63	56.7	0	0	---	0.00	29.884 
00:35	69.8	69.8	69.8	63	56.6	0	0	---	0.00	29.884 
00:40	69.6	69.6	69.6	63	56.4	0	0	---	0.00	29.884 
00:45	69.4	69.4	69.4	64	56.7	0	0	---	0.00	29.882 
00:50	69.3	69.3	69.3	64	56.6	0	0	---	0.00	29.882 
00:55	69.1	69.1	69.1	64	56.4	0	0	---	0.00	29.882 
01:00	68.8	68.8	68.8	64	56.1	0	0	---	0.00	29.883 
01:05	68.6	68.6	68.6	65	56.4	0	0	---	0.00	29.883 
01:10	68.4	68.4	68.4	65	56.2	0	0	---	0.00	29.883 
01:15	68.4	68.4	68.4	66	56.6	0	0	---	0.00	29.881 
01:20	68.3	68.3	68.3	66	56.5	0	0	---	0.00	29.881 
01:25	68.3	68.3	68.3	66	56.5	0	0	---	0.00	29.881 
01:30	68.3	68.3	68.3	66	56.5	0	0	---	0.00	29.883 
01:35	68.1	68.1	68.1	65	55.9	0	0	---	0.00	29.883 
01:40	68.1	68.1	68.1	66	56.3	0	0	---	0.00	29.883 
01:45	67.9	67.9	67.9	66	56.1	0	0	---	0.00	29.881 
01:50	67.8	67.8	67.8	67	56.4	0	0	---	0.00	29.881 
01:55	67.6	67.6	67.6	68	56.7	0	0	---	0.00	29.881 
02:00	67.6	67.6	67.6	68	56.7	0	0	---	0.00	29.882 
02:05	67.4	67.4	67.4	68	56.5	0	0	---	0.00	29.882 
02:10	67.4	67.4	67.4	68	56.5	0	0	---	0.00	29.882 
02:15	67.4	67.4	67.4	68	56.5	0	0	---	0.00	29.887 
02:20	67.4	67.4	67.4	68	56.5	0	0	---	0.00	29.887 
02:25	67.4	67.4	67.4	68	56.5	0	0	---	0.00	29.887 
02:30	67.3	67.3	67.3	68	56.4	0	0	---	0.00	29.895 
02:35	67.3	67.3	67.3	68	56.4	0	0	---	0.00	29.895 
02:40	67.1	67.1	67.1	69	56.6	0	0	---	0.00	29.895 
02:45	67.1	67.1	67.1	69	56.6	0	1	315	0.00	29.898 
02:50	67.1	67.1	67.1	69	56.6	0	0	---	0.00	29.898 
02:55	67.3	67.3	67.3	69	56.8	0	0	---	0.00	29.898 
03:00	67.3	67.3	67.3	69	56.8	0	0	---	0.00	29.908 
03:05	67.3	67.3	67.3	69	56.8	0	0	---	0.00	29.908 
03:10	67.1	67.1	67.1	69	56.6	0	0	---	0.00	29.908 
03:15	66.9	66.9	66.9	70	56.8	0	0	---	0.00	29.913 
03:20	66.9	66.9	66.9	70	56.8	0	0	---	0.00	29.913 
03:25	66.9	66.9	66.9	71	57.2	0	0	---	0.00	29.913 
03:30	66.9	66.9	66.9	72	57.6	0	0	---	0.00	29.915 
03:35	66.8	66.8	66.8	71	57.1	0	0	---	0.00	29.915 
03:40	66.8	66.8	66.8	72	57.5	0	0	---	0.00	29.915 
03:45	66.8	66.8	66.8	72	57.5	0	0	---	0.00	29.915 
03:50	66.6	66.6	66.6	72	57.3	0	0	---	0.00	29.915 
03:55	66.4	66.4	66.4	72	57.1	0	0	---	0.00	29.915 
04:00	66.3	66.3	66.3	73	57.4	0	0	---	0.00	29.914 
04:05	66.1	66.1	66.1	74	57.6	0	0	---	0.00	29.914 
04:10	66.0	66.0	66.0	74	57.5	0	0	---	0.00	29.914 
04:15	66.0	66.0	66.0	74	57.5	0	0	---	0.00	29.913 
04:20	66.0	66.0	66.0	74	57.5	0	0	---	0.00	29.913 
04:25	65.8	65.8	65.8	74	57.3	0	0	---	0.00	29.913 
04:30	65.8	65.8	65.8	75	57.6	0	0	---	0.00	29.913 
04:35	65.6	65.6	65.6	75	57.5	0	0	---	0.00	29.913 
04:40	65.6	65.6	65.6	76	57.8	0	0	---	0.00	29.913 
04:45	65.5	65.5	65.5	76	57.7	0	0	---	0.00	29.915 
04:50	65.3	65.3	65.3	77	57.9	0	0	---	0.00	29.915 
04:55	65.2	65.2	65.2	77	57.8	0	0	---	0.00	29.915 
05:00	65.2	65.2	65.2	77	57.8	0	0	---	0.00	29.918 
05:05	65.2	65.2	65.2	77	57.8	0	0	---	0.00	29.918 
05:10	65.2	65.2	65.2	77	57.8	0	0	---	0.00	29.918 
05:15	65.2	65.2	65.2	78	58.2	0	0	---	0.00	29.922 
05:20	65.2	65.2	65.2	78	58.2	0	0	---	0.00	29.922 
05:25	65.3	65.3	65.3	78	58.3	0	0	---	0.00	29.922 
05:30	65.3	65.3	65.3	78	58.3	0	0	---	0.00	29.924 
05:35	65.3	65.3	65.3	78	58.3	0	0	---	0.00	29.924 
05:40	65.3	65.3	65.3	78	58.3	0	0	---	0.00	29.924 
05:45	65.3	65.3	65.3	78	58.3	0	0	---	0.00	29.924 
05:50	65.3	65.3	65.3	78	58.3	0	0	---	0.00	29.924 
05:55	65.3	65.3	65.3	78	58.3	0	0	---	0.00	29.924 
06:00	65.3	65.3	65.3	78	58.3	0	0	---	0.00	29.921 
06:05	65.2	65.2	65.2	78	58.2	0	0	---	0.00	29.921 
06:10	65.2	65.2	65.2	78	58.2	0	0	---	0.00	29.921 
06:15	65.2	65.2	65.2	78	58.2	0	0	---	0.00	29.926 
06:20	65.2	65.2	65.2	78	58.2	0	0	---	0.00	29.926 
06:25	65.2	65.2	65.2	78	58.2	0	0	---	0.00	29.926 
06:30	65.3	65.3	65.3	78	58.3	0	0	---	0.00	29.926 
06:35	65.3	65.3	65.3	78	58.3	0	0	---	0.00	29.926 
06:40	65.3	65.3	65.3	77	57.9	0	0	---	0.00	29.926 
06:45	65.5	65.5	65.5	77	58.1	0	1	315	0.00	29.926 
06:50	65.6	65.6	65.6	76	57.8	0	0	---	0.00	29.926 
06:55	66.0	66.0	66.0	75	57.8	0	1	315	0.00	29.926 
07:00	66.3	66.3	66.3	75	58.1	0	1	315	0.00	29.926 
07:05	66.4	66.4	66.4	74	57.9	0	3	315	0.00	29.926 
07:10	66.4	66.4	66.4	74	57.9	0	0	---	0.00	29.926 
07:15	66.6	66.6	66.6	74	58.0	0	2	315	0.00	29.926 
07:20	66.6	66.6	66.6	74	58.0	0	1	338	0.00	29.926 
07:25	66.6	66.6	66.6	74	58.0	0	2	338	0.00	29.926 
07:30	66.6	66.6	66.6	74	58.0	0	2	338	0.00	29.928 
07:35	66.6	66.6	66.6	75	58.4	0	0	---	0.00	29.928 
07:40	66.8	66.8	66.8	74	58.2	0	2	338	0.00	29.928 
07:45	66.8	66.8	66.8	75	58.6	1	4	338	0.00	29.930 
07:50	66.8	66.8	66.8	74	58.2	0	2	112	0.00	29.930 
07:55	66.9	66.9	66.9	75	58.7	0	1	112	0.00	29.930 
08:00	67.1	67.1	67.1	75	58.9	0	1	112	0.00	29.932 
08:05	67.1	67.1	67.1	75	58.9	0	2	112	0.00	29.932 
08:10	67.3	67.3	67.3	75	59.1	0	2	112	0.00	29.932 
08:15	67.8	67.8	67.8	73	58.8	1	2	112	0.00	29.940 
08:20	68.3	68.3	68.3	73	59.3	1	4	112	0.00	29.940 
08:25	68.4	68.4	68.4	73	59.4	0	3	68	0.00	29.940 
08:30	68.4	68.4	68.4	73	59.4	1	3	68	0.00	29.947 
08:35	68.6	68.6	68.6	73	59.6	1	3	68	0.00	29.947 
08:40	68.6	68.6	68.6	72	59.2	1	2	68	0.00	29.947 
08:45	68.8	68.8	68.8	72	59.4	1	2	68	0.00	29.946 
08:50	69.1	69.1	69.1	71	59.3	1	2	68	0.00	29.946 
08:55	69.4	69.4	69.4	70	59.2	0	1	68	0.00	29.946 
09:00	69.9	69.9	69.9	69	59.3	0	1	68	0.00	29.947 
09:05	70.9	70.9	70.9	67	59.4	0	3	68	0.00	29.947 
09:10	71.8	71.8	71.8	65	59.4	1	4	68	0.00	29.947 
09:15	72.3	72.3	72.3	64	59.4	1	3	68	0.00	29.950 
09:20	73.0	73.0	73.0	62	59.2	1	3	90	0.00	29.950 
09:25	73.5	73.5	73.5	63	60.1	1	3	90	0.00	29.950 
09:30	73.7	73.7	73.7	63	60.3	1	3	90	0.00	29.947 
09:35	74.0	74.0	74.0	62	60.1	1	3	90	0.00	29.947 
09:40	74.6	74.6	74.6	60	59.8	0	2	90	0.00	29.947 
09:45	74.9	74.9	74.9	60	60.1	1	3	90	0.00	29.947 
09:50	75.4	75.4	77.6	59	60.1	1	3	90	0.00	29.947 
09:55	76.0	76.0	78.0	60	61.1	0	2	90	0.00	29.947 
10:00	76.5	76.5	78.4	57	60.1	0	1	90	0.00	29.945 
10:05	77.0	77.0	78.7	55	59.6	0	2	90	0.00	29.945 
10:10	77.6	77.6	79.1	54	59.6	0	2	90	0.00	29.945 
10:15	78.1	78.1	79.5	55	60.6	0	2	90	0.00	29.943 
10:20	78.3	78.3	79.7	55	60.8	1	3	90	0.00	29.943 
10:25	78.1	78.1	79.5	53	59.6	1	2	90	0.00	29.943 
10:30	78.6	78.6	79.7	51	58.9	0	1	90	0.00	29.943 
10:35	79.2	79.2	80.4	54	61.1	0	1	90	0.00	29.943 
10:40	79.9	79.9	80.8	51	60.1	0	2	90	0.00	29.943 
10:45	80.3	80.3	81.0	49	59.4	1	3	90	0.00	29.935 
10:50	80.3	80.3	81.1	50	59.9	1	3	90	0.00	29.935 
10:55	80.5	80.5	81.2	49	59.6	0	2	90	0.00	29.935 
11:00	81.1	81.1	81.5	47	58.9	0	2	90	0.00	29.929 
11:05	81.8	81.8	82.1	47	59.6	1	3	112	0.00	29.929 
11:10	82.4	82.4	82.7	47	60.1	1	2	112	0.00	29.929 
11:15	82.6	82.6	82.8	46	59.7	0	2	112	0.00	29.929 
11:20	82.8	82.8	83.2	47	60.5	0	2	112	0.00	29.929 
11:25	83.2	83.2	83.6	47	60.8	1	3	112	0.00	29.929 
11:30	83.4	83.4	83.7	46	60.4	1	3	112	0.00	29.928 
11:35	83.2	83.2	83.4	46	60.2	0	1	112	0.00	29.928 
11:40	83.2	83.2	83.4	46	60.2	0	1	112	0.00	29.928 
11:45	83.6	83.6	83.7	45	60.0	0	2	112	0.00	29.938 
11:50	83.8	83.8	83.7	44	59.5	0	1	112	0.00	29.938 
11:55	84.0	84.0	84.1	45	60.3	0	0	---	0.00	29.938 
12:00	84.3	84.3	84.5	45	60.6	0	1	112	0.00	29.935 
12:05	84.5	84.5	84.7	45	60.8	0	2	112	0.00	29.935 
12:10	84.7	84.7	85.2	46	61.6	1	2	112	0.00	29.935 
12:15	84.9	84.9	85.2	45	61.2	0	3	112	0.00	29.944 
12:20	85.1	85.1	85.4	45	61.3	0	2	112	0.00	29.944 
12:25	85.7	85.7	86.0	44	61.2	1	3	68	0.00	29.944 
12:30	86.3	86.3	86.5	43	61.1	0	4	68	0.00	29.943 
12:35	87.0	87.0	87.4	43	61.8	1	3	270	0.00	29.943 
12:40	87.0	87.0	87.6	44	62.4	1	2	315	0.00	29.943 
12:45	86.7	86.7	88.1	47	64.0	1	5	248	0.00	29.931 
12:50	86.1	86.1	87.5	48	64.1	1	3	248	0.00	29.931 
12:55	86.3	86.3	87.8	48	64.3	1	4	90	0.00	29.931 
13:00	86.3	86.3	87.8	48	64.3	1	3	90	0.00	29.929 
13:05	86.3	86.3	87.8	48	64.3	1	4	292	0.00	29.929 
13:10	86.7	86.7	88.9	50	65.8	0	2	292	0.00	29.929 
13:15	87.2	87.2	89.1	48	65.1	1	4	68	0.00	29.926 
13:20	87.2	87.2	89.1	48	65.1	1	4	270	0.00	29.926 
13:25	87.4	87.4	89.7	49	65.9	1	3	270	0.00	29.926 
13:30	87.6	87.6	90.4	50	66.6	1	5	270	0.00	29.926 
13:35	87.8	87.8	90.7	50	66.8	0	2	22	0.00	29.926 
13:40	87.8	87.8	90.4	49	66.2	1	4	22	0.00	29.926 
13:45	87.8	87.8	90.7	50	66.8	1	4	68	0.00	29.913 
13:50	87.6	87.6	90.7	51	67.2	1	5	90	0.00	29.913 
13:55	87.4	87.4	90.4	51	67.0	1	3	90	0.00	29.913 
14:00	87.4	87.4	90.7	52	67.6	1	3	90	0.00	29.912 
14:05	87.2	87.2	90.1	51	66.8	1	4	90	0.00	29.912 
14:10	87.2	87.2	90.8	53	67.9	0	2	248	0.00	29.912 
14:15	87.4	87.4	90.4	51	67.0	1	5	135	0.00	29.909 
14:20	87.4	87.4	91.1	53	68.1	1	2	90	0.00	29.909 
14:25	87.4	87.4	91.1	53	68.1	1	3	90	0.00	29.909 
14:30	87.4	87.4	91.5	54	68.7	1	5	270	0.00	29.910 
14:35	87.2	87.2	91.1	54	68.5	0	2	270	0.00	29.910 
14:40	87.4	87.4	91.5	54	68.7	0	1	270	0.00	29.910 
14:45	87.4	87.4	91.5	54	68.7	1	3	270	0.00	29.904 
14:50	87.6	87.6	91.8	54	68.9	1	3	45	0.00	29.904 
14:55	87.8	87.8	92.2	54	69.0	0	2	22	0.00	29.904 
15:00	88.0	88.0	92.6	54	69.2	1	3	315	0.00	29.900 
15:05	88.2	88.2	92.9	54	69.4	1	3	292	0.00	29.900 
15:10	88.2	88.2	92.9	54	69.4	1	4	315	0.00	29.900 
15:15	88.4	88.4	93.7	55	70.1	1	2	248	0.00	29.896 
15:20	89.0	89.0	94.5	54	70.2	0	4	90	0.00	29.896 
15:25	89.5	89.5	95.0	53	70.1	1	3	248	0.00	29.896 
15:30	89.7	89.7	94.9	52	69.7	1	5	90	0.00	29.891 
15:35	89.7	89.7	94.9	52	69.7	0	1	90	0.00	29.891 
15:40	89.5	89.5	95.0	53	70.1	1	4	68	0.00	29.891 
15:45	89.5	89.5	95.9	55	71.2	0	2	68	0.00	29.884 
15:50	89.5	89.5	95.0	53	70.1	1	4	68	0.00	29.884 
15:55	89.7	89.7	95.4	53	70.3	1	5	90	0.00	29.884 
16:00	89.9	89.9	95.3	52	69.9	1	4	90	0.00	29.878 
16:05	89.7	89.7	95.4	53	70.3	1	4	90	0.00	29.878 
16:10	89.7	89.7	95.4	53	70.3	0	2	270	0.00	29.878 
16:15	89.7	89.7	95.4	53	70.3	0	2	270	0.00	29.878 
16:20	89.9	89.9	95.8	53	70.4	1	3	292	0.00	29.878 
16:25	90.1	90.1	96.7	54	71.2	1	3	68	0.00	29.878 
16:30	90.3	90.3	96.6	53	70.8	1	3	68	0.00	29.878 
16:35	89.9	89.9	95.8	53	70.4	1	4	292	0.00	29.878 
16:40	89.7	89.7	95.4	53	70.3	1	3	68	0.00	29.878 
16:45	89.5	89.5	95.5	54	70.6	0	2	0	0.00	29.882 
16:50	89.3	89.3	95.1	54	70.4	1	3	68	0.00	29.882 
16:55	89.3	89.3	95.5	55	71.0	1	2	68	0.00	29.882 
17:00	89.3	89.3	95.1	54	70.4	1	3	45	0.00	29.880 
17:05	89.7	89.7	95.9	54	70.8	0	2	68	0.00	29.880 
17:10	89.9	89.9	96.3	54	71.0	1	2	68	0.00	29.880 
17:15	89.7	89.7	95.9	54	70.8	0	1	68	0.00	29.887 
17:20	89.7	89.7	96.4	55	71.3	0	1	68	0.00	29.887 
17:25	89.5	89.5	95.5	54	70.6	0	2	68	0.00	29.887 
17:30	89.7	89.7	95.9	54	70.8	0	3	22	0.00	29.879 
17:35	89.9	89.9	95.8	53	70.4	0	3	22	0.00	29.879 
17:40	90.1	90.1	96.7	54	71.2	1	3	0	0.00	29.879 
17:45	89.9	89.9	96.3	54	71.0	1	3	270	0.00	29.878 
17:50	89.5	89.5	95.9	55	71.2	0	2	270	0.00	29.878 
17:55	89.5	89.5	96.4	56	71.7	0	2	270	0.00	29.878 
18:00	89.5	89.5	96.4	56	71.7	1	3	68	0.00	29.877 
18:05	89.3	89.3	96.5	57	72.0	1	4	90	0.00	29.877 
18:10	89.0	89.0	95.9	57	71.7	1	3	90	0.00	29.877 
18:15	89.0	89.0	95.9	57	71.7	1	4	90	0.00	29.876 
18:20	88.8	88.8	95.9	58	72.1	0	3	135	0.00	29.876 
18:25	88.8	88.8	95.9	58	72.1	1	3	112	0.00	29.876 
18:30	88.8	88.8	95.9	58	72.1	1	4	112	0.00	29.869 
18:35	89.0	89.0	96.4	58	72.3	1	3	112	0.00	29.869 
18:40	89.0	89.0	96.8	59	72.8	1	2	202	0.00	29.869 
18:45	89.0	89.0	96.4	58	72.3	1	5	90	0.00	29.869 
18:50	89.0	89.0	96.4	58	72.3	0	2	112	0.00	29.869 
18:55	88.8	88.8	95.9	58	72.1	1	3	112	0.00	29.869 
19:00	88.6	88.6	95.5	58	71.9	0	2	112	0.00	29.866 
19:05	88.4	88.4	95.1	58	71.7	0	2	112	0.00	29.866 
19:10	88.2	88.2	94.7	58	71.5	0	2	112	0.00	29.866 
19:15	88.0	88.0	94.3	58	71.3	0	2	135	0.00	29.867 
19:20	88.0	88.0	94.7	59	71.8	0	1	135	0.00	29.867 
19:25	88.0	88.0	94.3	58	71.3	0	1	135	0.00	29.867 
19:30	88.2	88.2	94.7	58	71.5	0	2	135	0.00	29.863 
19:35	88.2	88.2	95.1	59	72.0	1	6	68	0.00	29.863 
19:40	88.4	88.4	95.1	58	71.7	0	3	292	0.00	29.863 
19:45	88.4	88.4	95.5	59	72.2	0	2	292	0.00	29.867 
19:50	88.4	88.4	95.5	59	72.2	0	2	270	0.00	29.867 
19:55	88.2	88.2	95.1	59	72.0	0	1	270	0.00	29.867 
20:00	88.0	88.0	94.7	59	71.8	0	1	270	0.00	29.870 
20:05	87.8	87.8	94.3	59	71.7	0	1	270	0.00	29.870 
20:10	87.6	87.6	93.9	59	71.5	0	1	270	0.00	29.870 
20:15	87.4	87.4	93.9	60	71.8	0	0	---	0.00	29.863 
20:20	87.2	87.2	93.5	60	71.6	0	0	---	0.00	29.863 
20:25	87.0	87.0	93.1	60	71.4	0	0	---	0.00	29.863 
20:30	87.0	87.0	93.1	60	71.4	0	2	292	0.00	29.864 
20:35	86.7	86.7	92.9	61	71.6	0	1	315	0.00	29.864 
20:40	86.5	86.5	92.5	61	71.4	0	0	---	0.00	29.864 
20:45	86.3	86.3	92.1	61	71.2	0	2	315	0.00	29.863 
20:50	86.3	86.3	92.1	61	71.2	0	2	315	0.00	29.863 
20:55	86.1	86.1	91.7	61	71.0	0	1	315	0.00	29.863 
21:00	85.9	85.9	91.6	62	71.3	0	1	315	0.00	29.861 
21:05	85.7	85.7	91.2	62	71.1	0	1	315	0.00	29.861 
21:10	85.5	85.5	91.2	63	71.4	0	1	315	0.00	29.861 
21:15	85.3	85.3	90.8	63	71.2	0	1	315	0.00	29.857 
21:20	84.9	84.9	89.7	62	70.4	0	2	315	0.00	29.857 
21:25	84.9	84.9	90.0	63	70.9	0	0	---	0.00	29.857 
21:30	84.7	84.7	89.6	63	70.7	0	0	---	0.00	29.857 
21:35	84.5	84.5	89.6	64	71.0	0	1	315	0.00	29.857 
21:40	84.3	84.3	89.2	64	70.8	0	0	---	0.00	29.857 
21:45	84.1	84.1	88.8	64	70.6	0	0	---	0.00	29.861 
21:50	84.1	84.1	89.1	65	71.0	0	2	315	0.00	29.861 
21:55	84.0	84.0	88.9	65	70.9	0	0	---	0.00	29.861 
22:00	83.8	83.8	88.8	66	71.2	0	2	315	0.00	29.863 
22:05	83.8	83.8	88.8	66	71.2	0	0	---	0.00	29.863 
22:10	83.4	83.4	88.4	67	71.3	0	0	---	0.00	29.863 
22:15	83.2	83.2	88.0	67	71.1	0	1	315	0.00	29.857 
22:20	83.0	83.0	87.9	68	71.3	0	0	---	0.00	29.857 
22:25	82.8	82.8	87.5	68	71.1	0	0	---	0.00	29.857 
22:30	82.6	82.6	87.3	69	71.4	0	0	---	0.00	29.862 
22:35	82.6	82.6	87.3	69	71.4	0	0	---	0.00	29.862 
22:40	82.4	82.4	87.2	70	71.6	0	0	---	0.00	29.862 
22:45	82.2	82.2	86.8	70	71.4	0	0	---	0.00	29.867 
22:50	82.2	82.2	87.0	71	71.8	0	0	---	0.00	29.867 
22:55	82.0	82.0	86.9	72	72.1	0	0	---	0.00	29.867 
23:00	82.0	82.0	86.9	72	72.1	0	0	---	0.00	29.873 
23:05	82.2	82.2	87.3	72	72.2	0	0	---	0.00	29.873 
23:10	82.2	82.2	87.5	73	72.7	0	0	---	0.00	29.873 
23:15	82.2	82.2	87.5	73	72.7	0	0	---	0.00	29.869 
23:20	82.2	82.2	87.5	73	72.7	0	1	315	0.00	29.869 
23:25	82.4	82.4	87.9	73	72.9	0	0	---	0.00	29.869 
23:30	82.4	82.4	87.9	73	72.9	0	0	---	0.00	29.868 
23:35	82.4	82.4	88.2	74	73.3	0	0	---	0.00	29.868 
23:40	82.4	82.4	88.2	74	73.3	0	1	315	0.00	29.868 
23:45	82.4	82.4	88.2	74	73.3	0	1	315	0.00	29.875 
23:50	82.4	82.4	88.2	74	73.3	0	0	---	0.00	29.875 
23:55	82.4	82.4	88.2	74	73.3	0	2	315	0.00	29.875 

CoCoRaHS
IN-AL-39
A2 Web Hosting
Creative Commons License
GoDaddy
search engine by freefind advanced

loaded 2018-11-17 18:11:49 • last modified 2010-11-18 10:43:29
Privacy PolicyDisclaimer
• wx.awcolley.com is powered by PmWiki v.2002016 •
• all content (unless otherwise noted) © 2018 A W Colley